sensor_id;sensor_type;location;lat;lon;timestamp;P1;durP1;ratioP1;P2;durP2;ratioP2
19095;SDS011;9680;52.520;13.332;2022-12-29T00:02:08;3.30;;;1.60;;
19095;SDS011;9680;52.520;13.332;2022-12-29T00:04:35;3.80;;;1.70;;
19095;SDS011;9680;52.520;13.332;2022-12-29T00:07:02;2.87;;;1.40;;
19095;SDS011;9680;52.520;13.332;2022-12-29T00:09:29;3.10;;;1.50;;
19095;SDS011;9680;52.520;13.332;2022-12-29T00:11:56;7.00;;;1.80;;
19095;SDS011;9680;52.520;13.332;2022-12-29T00:14:24;4.30;;;1.67;;
19095;SDS011;9680;52.520;13.332;2022-12-29T00:17:09;3.70;;;1.50;;
19095;SDS011;9680;52.520;13.332;2022-12-29T00:19:36;2.73;;;1.40;;
19095;SDS011;9680;52.520;13.332;2022-12-29T00:22:20;2.17;;;1.40;;
19095;SDS011;9680;52.520;13.332;2022-12-29T00:25:05;3.00;;;1.67;;
19095;SDS011;9680;52.520;13.332;2022-12-29T00:27:52;3.77;;;1.57;;
19095;SDS011;9680;52.520;13.332;2022-12-29T00:30:38;4.77;;;1.60;;
19095;SDS011;9680;52.520;13.332;2022-12-29T00:33:25;2.83;;;1.47;;
19095;SDS011;9680;52.520;13.332;2022-12-29T00:36:11;2.47;;;1.40;;
19095;SDS011;9680;52.520;13.332;2022-12-29T00:38:43;2.63;;;1.40;;
19095;SDS011;9680;52.520;13.332;2022-12-29T00:41:30;4.83;;;1.40;;
19095;SDS011;9680;52.520;13.332;2022-12-29T00:44:14;2.67;;;1.63;;
19095;SDS011;9680;52.520;13.332;2022-12-29T00:46:44;3.70;;;1.47;;
19095;SDS011;9680;52.520;13.332;2022-12-29T00:49:11;2.63;;;1.70;;
19095;SDS011;9680;52.520;13.332;2022-12-29T00:51:57;5.40;;;1.73;;
19095;SDS011;9680;52.520;13.332;2022-12-29T00:54:27;4.37;;;1.60;;
19095;SDS011;9680;52.520;13.332;2022-12-29T00:56:55;2.83;;;1.50;;
19095;SDS011;9680;52.520;13.332;2022-12-29T00:59:22;2.20;;;1.53;;
19095;SDS011;9680;52.520;13.332;2022-12-29T01:01:51;3.63;;;1.93;;
19095;SDS011;9680;52.520;13.332;2022-12-29T01:04:19;2.30;;;1.50;;
19095;SDS011;9680;52.520;13.332;2022-12-29T01:06:47;5.13;;;1.60;;
19095;SDS011;9680;52.520;13.332;2022-12-29T01:09:14;4.47;;;1.70;;
19095;SDS011;9680;52.520;13.332;2022-12-29T01:11:59;5.63;;;1.77;;
19095;SDS011;9680;52.520;13.332;2022-12-29T01:14:26;3.73;;;1.87;;
19095;SDS011;9680;52.520;13.332;2022-12-29T01:16:55;3.20;;;1.57;;
19095;SDS011;9680;52.520;13.332;2022-12-29T01:19:22;4.13;;;1.30;;
19095;SDS011;9680;52.520;13.332;2022-12-29T01:21:49;2.97;;;1.40;;
19095;SDS011;9680;52.520;13.332;2022-12-29T01:24:18;3.23;;;1.47;;
19095;SDS011;9680;52.520;13.332;2022-12-29T01:26:45;2.03;;;1.20;;
19095;SDS011;9680;52.520;13.332;2022-12-29T01:29:15;3.10;;;1.50;;
19095;SDS011;9680;52.520;13.332;2022-12-29T01:31:44;3.80;;;1.60;;
19095;SDS011;9680;52.520;13.332;2022-12-29T01:34:12;3.20;;;1.50;;
19095;SDS011;9680;52.520;13.332;2022-12-29T01:36:39;2.60;;;1.27;;
19095;SDS011;9680;52.520;13.332;2022-12-29T01:39:06;3.83;;;1.50;;
19095;SDS011;9680;52.520;13.332;2022-12-29T01:41:32;2.33;;;1.30;;
19095;SDS011;9680;52.520;13.332;2022-12-29T01:44:00;3.40;;;1.50;;
19095;SDS011;9680;52.520;13.332;2022-12-29T01:46:28;2.23;;;1.43;;
19095;SDS011;9680;52.520;13.332;2022-12-29T01:48:59;2.87;;;1.37;;
19095;SDS011;9680;52.520;13.332;2022-12-29T01:51:33;4.73;;;1.50;;
19095;SDS011;9680;52.520;13.332;2022-12-29T01:54:03;2.57;;;1.47;;
19095;SDS011;9680;52.520;13.332;2022-12-29T01:56:34;2.47;;;1.33;;
19095;SDS011;9680;52.520;13.332;2022-12-29T01:59:02;5.87;;;1.50;;
19095;SDS011;9680;52.520;13.332;2022-12-29T02:01:32;3.67;;;1.60;;
19095;SDS011;9680;52.520;13.332;2022-12-29T02:04:00;3.00;;;1.43;;
19095;SDS011;9680;52.520;13.332;2022-12-29T02:06:28;2.63;;;1.63;;
19095;SDS011;9680;52.520;13.332;2022-12-29T02:08:59;3.23;;;1.43;;
19095;SDS011;9680;52.520;13.332;2022-12-29T02:11:27;2.07;;;1.37;;
19095;SDS011;9680;52.520;13.332;2022-12-29T02:13:56;5.83;;;1.50;;
19095;SDS011;9680;52.520;13.332;2022-12-29T02:16:33;5.27;;;1.40;;
19095;SDS011;9680;52.520;13.332;2022-12-29T02:22:19;4.10;;;1.60;;
19095;SDS011;9680;52.520;13.332;2022-12-29T02:28:06;3.70;;;1.60;;
19095;SDS011;9680;52.520;13.332;2022-12-29T02:31:03;2.87;;;1.50;;
19095;SDS011;9680;52.520;13.332;2022-12-29T02:33:41;3.17;;;1.60;;
19095;SDS011;9680;52.520;13.332;2022-12-29T02:36:17;3.17;;;1.57;;
19095;SDS011;9680;52.520;13.332;2022-12-29T02:38:57;4.17;;;1.40;;
19095;SDS011;9680;52.520;13.332;2022-12-29T02:41:32;2.10;;;1.40;;
19095;SDS011;9680;52.520;13.332;2022-12-29T02:44:04;3.27;;;1.63;;
19095;SDS011;9680;52.520;13.332;2022-12-29T02:46:43;5.27;;;1.37;;
19095;SDS011;9680;52.520;13.332;2022-12-29T02:49:19;2.93;;;1.50;;
19095;SDS011;9680;52.520;13.332;2022-12-29T02:51:50;6.20;;;1.60;;
19095;SDS011;9680;52.520;13.332;2022-12-29T02:54:22;3.00;;;1.50;;
19095;SDS011;9680;52.520;13.332;2022-12-29T02:57:10;2.97;;;1.47;;
19095;SDS011;9680;52.520;13.332;2022-12-29T02:59:38;2.50;;;1.23;;
19095;SDS011;9680;52.520;13.332;2022-12-29T03:02:17;3.27;;;1.23;;
19095;SDS011;9680;52.520;13.332;2022-12-29T03:05:11;2.47;;;1.40;;
19095;SDS011;9680;52.520;13.332;2022-12-29T03:07:48;2.50;;;1.20;;
19095;SDS011;9680;52.520;13.332;2022-12-29T03:10:25;2.50;;;1.33;;
19095;SDS011;9680;52.520;13.332;2022-12-29T03:13:02;2.00;;;1.20;;
19095;SDS011;9680;52.520;13.332;2022-12-29T03:15:55;5.47;;;1.37;;
19095;SDS011;9680;52.520;13.332;2022-12-29T03:18:34;4.27;;;1.40;;
19095;SDS011;9680;52.520;13.332;2022-12-29T03:21:08;2.73;;;1.30;;
19095;SDS011;9680;52.520;13.332;2022-12-29T03:23:39;3.43;;;1.50;;
19095;SDS011;9680;52.520;13.332;2022-12-29T03:26:10;3.90;;;1.40;;
19095;SDS011;9680;52.520;13.332;2022-12-29T03:28:40;2.70;;;1.37;;
19095;SDS011;9680;52.520;13.332;2022-12-29T03:31:14;3.87;;;1.40;;
19095;SDS011;9680;52.520;13.332;2022-12-29T03:33:45;4.03;;;1.30;;
19095;SDS011;9680;52.520;13.332;2022-12-29T03:38:53;1.83;;;1.23;;
19095;SDS011;9680;52.520;13.332;2022-12-29T03:41:28;2.73;;;1.50;;
19095;SDS011;9680;52.520;13.332;2022-12-29T03:43:59;4.03;;;1.43;;
19095;SDS011;9680;52.520;13.332;2022-12-29T03:46:26;2.33;;;1.20;;
19095;SDS011;9680;52.520;13.332;2022-12-29T03:48:54;3.57;;;1.20;;
19095;SDS011;9680;52.520;13.332;2022-12-29T03:51:22;5.37;;;1.20;;
19095;SDS011;9680;52.520;13.332;2022-12-29T03:53:49;4.03;;;1.50;;
19095;SDS011;9680;52.520;13.332;2022-12-29T03:56:16;3.90;;;1.53;;
19095;SDS011;9680;52.520;13.332;2022-12-29T03:58:43;2.57;;;1.37;;
19095;SDS011;9680;52.520;13.332;2022-12-29T04:01:17;1.80;;;1.20;;
19095;SDS011;9680;52.520;13.332;2022-12-29T04:03:44;2.03;;;1.30;;
19095;SDS011;9680;52.520;13.332;2022-12-29T04:06:12;2.43;;;1.50;;
19095;SDS011;9680;52.520;13.332;2022-12-29T04:08:46;2.60;;;1.37;;
19095;SDS011;9680;52.520;13.332;2022-12-29T04:11:13;2.53;;;1.40;;
19095;SDS011;9680;52.520;13.332;2022-12-29T04:13:40;2.90;;;1.30;;
19095;SDS011;9680;52.520;13.332;2022-12-29T04:16:09;2.40;;;1.23;;
19095;SDS011;9680;52.520;13.332;2022-12-29T04:18:36;4.07;;;1.33;;
19095;SDS011;9680;52.520;13.332;2022-12-29T04:21:02;2.03;;;1.10;;
19095;SDS011;9680;52.520;13.332;2022-12-29T04:23:33;5.60;;;1.50;;
19095;SDS011;9680;52.520;13.332;2022-12-29T04:26:03;2.50;;;1.30;;
19095;SDS011;9680;52.520;13.332;2022-12-29T04:28:33;2.40;;;1.20;;
19095;SDS011;9680;52.520;13.332;2022-12-29T04:31:21;2.47;;;1.30;;
19095;SDS011;9680;52.520;13.332;2022-12-29T04:33:49;2.50;;;1.50;;
19095;SDS011;9680;52.520;13.332;2022-12-29T04:36:16;2.37;;;1.30;;
19095;SDS011;9680;52.520;13.332;2022-12-29T04:38:44;2.37;;;1.17;;
19095;SDS011;9680;52.520;13.332;2022-12-29T04:41:10;2.20;;;1.20;;
19095;SDS011;9680;52.520;13.332;2022-12-29T04:43:38;1.90;;;1.17;;
19095;SDS011;9680;52.520;13.332;2022-12-29T04:46:07;3.80;;;1.30;;
19095;SDS011;9680;52.520;13.332;2022-12-29T04:48:42;2.40;;;1.30;;
19095;SDS011;9680;52.520;13.332;2022-12-29T04:51:29;3.53;;;1.40;;
19095;SDS011;9680;52.520;13.332;2022-12-29T04:53:57;2.77;;;1.30;;
19095;SDS011;9680;52.520;13.332;2022-12-29T04:56:26;3.33;;;1.67;;
19095;SDS011;9680;52.520;13.332;2022-12-29T04:58:52;3.60;;;1.30;;
19095;SDS011;9680;52.520;13.332;2022-12-29T05:01:20;2.20;;;1.30;;
19095;SDS011;9680;52.520;13.332;2022-12-29T05:03:49;3.03;;;1.50;;
19095;SDS011;9680;52.520;13.332;2022-12-29T05:06:17;2.63;;;1.50;;
19095;SDS011;9680;52.520;13.332;2022-12-29T05:08:44;6.07;;;1.50;;
19095;SDS011;9680;52.520;13.332;2022-12-29T05:11:12;2.30;;;1.33;;
19095;SDS011;9680;52.520;13.332;2022-12-29T05:13:39;3.53;;;1.60;;
19095;SDS011;9680;52.520;13.332;2022-12-29T05:16:07;2.03;;;1.30;;
19095;SDS011;9680;52.520;13.332;2022-12-29T05:18:34;2.63;;;1.40;;
19095;SDS011;9680;52.520;13.332;2022-12-29T05:21:02;2.47;;;1.30;;
19095;SDS011;9680;52.520;13.332;2022-12-29T05:23:29;2.93;;;1.43;;
19095;SDS011;9680;52.520;13.332;2022-12-29T05:26:00;3.60;;;1.67;;
19095;SDS011;9680;52.520;13.332;2022-12-29T05:28:40;3.07;;;1.40;;
19095;SDS011;9680;52.520;13.332;2022-12-29T05:31:12;2.93;;;1.33;;
19095;SDS011;9680;52.520;13.332;2022-12-29T05:33:39;3.77;;;1.30;;
19095;SDS011;9680;52.520;13.332;2022-12-29T05:36:06;2.47;;;1.40;;
19095;SDS011;9680;52.520;13.332;2022-12-29T05:38:37;3.07;;;1.30;;
19095;SDS011;9680;52.520;13.332;2022-12-29T05:41:04;2.97;;;1.40;;
19095;SDS011;9680;52.520;13.332;2022-12-29T05:44:01;3.93;;;1.40;;
19095;SDS011;9680;52.520;13.332;2022-12-29T05:46:46;2.60;;;1.60;;
19095;SDS011;9680;52.520;13.332;2022-12-29T05:49:20;4.20;;;1.47;;
19095;SDS011;9680;52.520;13.332;2022-12-29T05:52:08;3.40;;;1.47;;
19095;SDS011;9680;52.520;13.332;2022-12-29T05:54:34;2.73;;;1.60;;
19095;SDS011;9680;52.520;13.332;2022-12-29T05:57:07;3.37;;;1.30;;
19095;SDS011;9680;52.520;13.332;2022-12-29T05:59:36;2.93;;;1.20;;
19095;SDS011;9680;52.520;13.332;2022-12-29T06:02:04;2.13;;;1.30;;
19095;SDS011;9680;52.520;13.332;2022-12-29T06:04:31;1.80;;;1.30;;
19095;SDS011;9680;52.520;13.332;2022-12-29T06:06:59;3.20;;;1.30;;
19095;SDS011;9680;52.520;13.332;2022-12-29T06:09:40;2.90;;;1.40;;
19095;SDS011;9680;52.520;13.332;2022-12-29T06:12:08;2.17;;;1.20;;
19095;SDS011;9680;52.520;13.332;2022-12-29T06:14:39;3.57;;;1.47;;
19095;SDS011;9680;52.520;13.332;2022-12-29T06:17:05;2.43;;;1.40;;
19095;SDS011;9680;52.520;13.332;2022-12-29T06:19:33;2.10;;;1.30;;
19095;SDS011;9680;52.520;13.332;2022-12-29T06:22:00;3.97;;;1.57;;
19095;SDS011;9680;52.520;13.332;2022-12-29T06:24:31;2.60;;;1.30;;
19095;SDS011;9680;52.520;13.332;2022-12-29T06:26:58;2.90;;;1.20;;
19095;SDS011;9680;52.520;13.332;2022-12-29T06:29:26;2.87;;;1.17;;
19095;SDS011;9680;52.520;13.332;2022-12-29T06:31:56;2.43;;;1.30;;
19095;SDS011;9680;52.520;13.332;2022-12-29T06:34:24;2.23;;;1.20;;
19095;SDS011;9680;52.520;13.332;2022-12-29T06:36:51;4.97;;;1.20;;
19095;SDS011;9680;52.520;13.332;2022-12-29T06:39:18;5.57;;;1.20;;
19095;SDS011;9680;52.520;13.332;2022-12-29T06:41:57;2.73;;;1.20;;
19095;SDS011;9680;52.520;13.332;2022-12-29T06:44:45;2.23;;;1.00;;
19095;SDS011;9680;52.520;13.332;2022-12-29T06:47:13;2.50;;;1.20;;
19095;SDS011;9680;52.520;13.332;2022-12-29T06:49:40;1.97;;;1.30;;
19095;SDS011;9680;52.520;13.332;2022-12-29T06:52:07;2.67;;;1.30;;
19095;SDS011;9680;52.520;13.332;2022-12-29T06:54:33;1.80;;;1.10;;
19095;SDS011;9680;52.520;13.332;2022-12-29T06:57:00;3.63;;;1.20;;
19095;SDS011;9680;52.520;13.332;2022-12-29T06:59:27;2.53;;;1.37;;
19095;SDS011;9680;52.520;13.332;2022-12-29T07:01:54;2.00;;;1.00;;
19095;SDS011;9680;52.520;13.332;2022-12-29T07:04:22;2.00;;;1.07;;
19095;SDS011;9680;52.520;13.332;2022-12-29T07:06:49;2.30;;;1.30;;
19095;SDS011;9680;52.520;13.332;2022-12-29T07:09:16;1.90;;;1.20;;
19095;SDS011;9680;52.520;13.332;2022-12-29T07:11:42;4.63;;;1.37;;
19095;SDS011;9680;52.520;13.332;2022-12-29T07:14:10;3.10;;;1.30;;
19095;SDS011;9680;52.520;13.332;2022-12-29T07:16:37;3.07;;;1.33;;
19095;SDS011;9680;52.520;13.332;2022-12-29T07:19:04;1.63;;;1.10;;
19095;SDS011;9680;52.520;13.332;2022-12-29T07:21:33;2.73;;;1.27;;
19095;SDS011;9680;52.520;13.332;2022-12-29T07:23:59;2.33;;;1.20;;
19095;SDS011;9680;52.520;13.332;2022-12-29T07:26:26;2.60;;;1.10;;
19095;SDS011;9680;52.520;13.332;2022-12-29T07:28:53;1.90;;;1.30;;
19095;SDS011;9680;52.520;13.332;2022-12-29T07:31:21;2.77;;;1.10;;
19095;SDS011;9680;52.520;13.332;2022-12-29T07:33:48;2.23;;;1.43;;
19095;SDS011;9680;52.520;13.332;2022-12-29T07:36:16;1.87;;;1.07;;
19095;SDS011;9680;52.520;13.332;2022-12-29T07:38:44;1.70;;;1.10;;
19095;SDS011;9680;52.520;13.332;2022-12-29T07:41:11;2.33;;;1.37;;
19095;SDS011;9680;52.520;13.332;2022-12-29T07:43:37;3.10;;;1.40;;
19095;SDS011;9680;52.520;13.332;2022-12-29T07:46:23;2.90;;;1.30;;
19095;SDS011;9680;52.520;13.332;2022-12-29T07:48:50;2.43;;;1.00;;
19095;SDS011;9680;52.520;13.332;2022-12-29T07:51:17;1.90;;;1.07;;
19095;SDS011;9680;52.520;13.332;2022-12-29T07:53:46;2.10;;;1.23;;
19095;SDS011;9680;52.520;13.332;2022-12-29T07:56:12;87.03;;;4.07;;
19095;SDS011;9680;52.520;13.332;2022-12-29T07:58:39;8.83;;;1.40;;
19095;SDS011;9680;52.520;13.332;2022-12-29T08:01:07;1.67;;;1.00;;
19095;SDS011;9680;52.520;13.332;2022-12-29T08:03:34;1.63;;;0.90;;
19095;SDS011;9680;52.520;13.332;2022-12-29T08:06:01;1.80;;;1.10;;
19095;SDS011;9680;52.520;13.332;2022-12-29T08:08:28;2.77;;;1.27;;
19095;SDS011;9680;52.520;13.332;2022-12-29T08:10:56;1.33;;;0.90;;
19095;SDS011;9680;52.520;13.332;2022-12-29T08:13:23;3.77;;;1.30;;
19095;SDS011;9680;52.520;13.332;2022-12-29T08:15:50;1.97;;;1.03;;
19095;SDS011;9680;52.520;13.332;2022-12-29T08:18:16;3.10;;;1.27;;
19095;SDS011;9680;52.520;13.332;2022-12-29T08:20:43;3.20;;;1.17;;
19095;SDS011;9680;52.520;13.332;2022-12-29T08:23:10;2.97;;;1.03;;
19095;SDS011;9680;52.520;13.332;2022-12-29T08:25:38;3.27;;;1.10;;
19095;SDS011;9680;52.520;13.332;2022-12-29T08:28:07;2.30;;;1.07;;
19095;SDS011;9680;52.520;13.332;2022-12-29T08:30:34;2.50;;;1.13;;
19095;SDS011;9680;52.520;13.332;2022-12-29T08:33:02;4.13;;;1.30;;
19095;SDS011;9680;52.520;13.332;2022-12-29T08:35:29;2.13;;;1.20;;
19095;SDS011;9680;52.520;13.332;2022-12-29T08:37:57;2.53;;;1.10;;
19095;SDS011;9680;52.520;13.332;2022-12-29T08:40:24;3.23;;;1.10;;
19095;SDS011;9680;52.520;13.332;2022-12-29T08:42:52;2.73;;;1.27;;
19095;SDS011;9680;52.520;13.332;2022-12-29T08:45:20;3.10;;;1.30;;
19095;SDS011;9680;52.520;13.332;2022-12-29T08:47:47;2.67;;;1.00;;
19095;SDS011;9680;52.520;13.332;2022-12-29T08:50:13;2.60;;;1.17;;
19095;SDS011;9680;52.520;13.332;2022-12-29T08:52:40;1.90;;;0.97;;
19095;SDS011;9680;52.520;13.332;2022-12-29T08:55:15;6.17;;;1.40;;
19095;SDS011;9680;52.520;13.332;2022-12-29T08:57:53;1.73;;;1.10;;
19095;SDS011;9680;52.520;13.332;2022-12-29T09:00:21;3.03;;;1.33;;
19095;SDS011;9680;52.520;13.332;2022-12-29T09:02:49;1.50;;;0.97;;
19095;SDS011;9680;52.520;13.332;2022-12-29T09:05:16;2.17;;;1.03;;
19095;SDS011;9680;52.520;13.332;2022-12-29T09:07:43;2.20;;;1.10;;
19095;SDS011;9680;52.520;13.332;2022-12-29T09:10:09;7.17;;;1.10;;
19095;SDS011;9680;52.520;13.332;2022-12-29T09:12:36;1.80;;;1.00;;
19095;SDS011;9680;52.520;13.332;2022-12-29T09:15:03;1.97;;;1.13;;
19095;SDS011;9680;52.520;13.332;2022-12-29T09:17:32;2.27;;;1.10;;
19095;SDS011;9680;52.520;13.332;2022-12-29T09:20:09;1.73;;;1.00;;
19095;SDS011;9680;52.520;13.332;2022-12-29T09:22:37;2.50;;;1.17;;
19095;SDS011;9680;52.520;13.332;2022-12-29T09:25:04;2.47;;;1.17;;
19095;SDS011;9680;52.520;13.332;2022-12-29T09:27:31;1.87;;;1.10;;
19095;SDS011;9680;52.520;13.332;2022-12-29T09:29:58;1.97;;;1.23;;
19095;SDS011;9680;52.520;13.332;2022-12-29T09:32:24;3.40;;;1.10;;
19095;SDS011;9680;52.520;13.332;2022-12-29T09:34:52;2.10;;;1.00;;
19095;SDS011;9680;52.520;13.332;2022-12-29T09:37:19;6.03;;;1.03;;
19095;SDS011;9680;52.520;13.332;2022-12-29T09:39:46;2.80;;;1.30;;
19095;SDS011;9680;52.520;13.332;2022-12-29T09:42:14;2.33;;;1.10;;
19095;SDS011;9680;52.520;13.332;2022-12-29T09:44:51;2.77;;;1.20;;
19095;SDS011;9680;52.520;13.332;2022-12-29T09:47:27;5.83;;;1.20;;
19095;SDS011;9680;52.520;13.332;2022-12-29T09:49:58;1.60;;;1.00;;
19095;SDS011;9680;52.520;13.332;2022-12-29T09:52:30;2.17;;;1.10;;
19095;SDS011;9680;52.520;13.332;2022-12-29T09:55:01;2.03;;;1.07;;
19095;SDS011;9680;52.520;13.332;2022-12-29T09:57:32;4.15;;;1.42;;
19095;SDS011;9680;52.520;13.332;2022-12-29T10:00:05;1.83;;;0.93;;
19095;SDS011;9680;52.520;13.332;2022-12-29T10:02:39;3.27;;;1.10;;
19095;SDS011;9680;52.520;13.332;2022-12-29T10:05:18;2.43;;;0.90;;
19095;SDS011;9680;52.520;13.332;2022-12-29T10:07:55;2.00;;;0.97;;
19095;SDS011;9680;52.520;13.332;2022-12-29T10:10:32;2.20;;;1.00;;
19095;SDS011;9680;52.520;13.332;2022-12-29T10:13:10;1.97;;;1.00;;
19095;SDS011;9680;52.520;13.332;2022-12-29T10:15:54;1.90;;;1.10;;
19095;SDS011;9680;52.520;13.332;2022-12-29T10:18:41;2.22;;;1.20;;
19095;SDS011;9680;52.520;13.332;2022-12-29T10:21:21;2.73;;;1.20;;
19095;SDS011;9680;52.520;13.332;2022-12-29T10:23:55;2.80;;;1.00;;
19095;SDS011;9680;52.520;13.332;2022-12-29T10:26:23;2.27;;;1.00;;
19095;SDS011;9680;52.520;13.332;2022-12-29T10:28:54;3.50;;;1.17;;
19095;SDS011;9680;52.520;13.332;2022-12-29T10:31:25;2.23;;;1.17;;
19095;SDS011;9680;52.520;13.332;2022-12-29T10:33:59;4.53;;;1.75;;
19095;SDS011;9680;52.520;13.332;2022-12-29T10:36:33;3.20;;;1.20;;
19095;SDS011;9680;52.520;13.332;2022-12-29T10:39:06;4.10;;;1.25;;
19095;SDS011;9680;52.520;13.332;2022-12-29T10:41:41;3.67;;;1.10;;
19095;SDS011;9680;52.520;13.332;2022-12-29T10:44:13;3.85;;;1.45;;
19095;SDS011;9680;52.520;13.332;2022-12-29T10:46:42;1.80;;;1.00;;
19095;SDS011;9680;52.520;13.332;2022-12-29T10:49:11;2.22;;;0.95;;
19095;SDS011;9680;52.520;13.332;2022-12-29T10:51:44;3.80;;;1.20;;
19095;SDS011;9680;52.520;13.332;2022-12-29T10:54:15;3.50;;;1.13;;
19095;SDS011;9680;52.520;13.332;2022-12-29T10:56:51;3.25;;;0.90;;
19095;SDS011;9680;52.520;13.332;2022-12-29T10:59:22;2.00;;;1.00;;
19095;SDS011;9680;52.520;13.332;2022-12-29T11:01:53;6.28;;;1.45;;
19095;SDS011;9680;52.520;13.332;2022-12-29T11:04:39;3.10;;;1.13;;
19095;SDS011;9680;52.520;13.332;2022-12-29T11:07:19;4.38;;;1.20;;
19095;SDS011;9680;52.520;13.332;2022-12-29T11:09:47;1.27;;;0.90;;
19095;SDS011;9680;52.520;13.332;2022-12-29T11:12:20;2.70;;;0.93;;
19095;SDS011;9680;52.520;13.332;2022-12-29T11:15:00;3.05;;;1.10;;
19095;SDS011;9680;52.520;13.332;2022-12-29T11:17:42;3.22;;;1.00;;
19095;SDS011;9680;52.520;13.332;2022-12-29T11:20:19;1.40;;;0.90;;
19095;SDS011;9680;52.520;13.332;2022-12-29T11:22:59;1.77;;;1.02;;
19095;SDS011;9680;52.520;13.332;2022-12-29T11:25:26;2.03;;;1.00;;
19095;SDS011;9680;52.520;13.332;2022-12-29T11:27:57;10.15;;;1.13;;
19095;SDS011;9680;52.520;13.332;2022-12-29T11:30:27;1.77;;;1.00;;
19095;SDS011;9680;52.520;13.332;2022-12-29T11:32:56;1.85;;;1.20;;
19095;SDS011;9680;52.520;13.332;2022-12-29T11:35:30;2.35;;;0.90;;
19095;SDS011;9680;52.520;13.332;2022-12-29T11:38:01;3.10;;;0.90;;
19095;SDS011;9680;52.520;13.332;2022-12-29T11:40:32;3.65;;;1.08;;
19095;SDS011;9680;52.520;13.332;2022-12-29T11:43:05;2.13;;;1.00;;
19095;SDS011;9680;52.520;13.332;2022-12-29T11:45:33;2.13;;;0.90;;
19095;SDS011;9680;52.520;13.332;2022-12-29T11:48:05;1.63;;;0.90;;
19095;SDS011;9680;52.520;13.332;2022-12-29T11:50:34;3.50;;;1.17;;
19095;SDS011;9680;52.520;13.332;2022-12-29T11:53:05;2.63;;;1.13;;
19095;SDS011;9680;52.520;13.332;2022-12-29T11:55:50;2.65;;;0.90;;
19095;SDS011;9680;52.520;13.332;2022-12-29T11:58:18;3.50;;;0.90;;
19095;SDS011;9680;52.520;13.332;2022-12-29T12:00:45;1.13;;;0.70;;
19095;SDS011;9680;52.520;13.332;2022-12-29T12:03:16;1.60;;;0.90;;
19095;SDS011;9680;52.520;13.332;2022-12-29T12:05:46;1.90;;;0.90;;
19095;SDS011;9680;52.520;13.332;2022-12-29T12:08:22;4.82;;;0.80;;
19095;SDS011;9680;52.520;13.332;2022-12-29T12:10:58;1.20;;;0.80;;
19095;SDS011;9680;52.520;13.332;2022-12-29T12:13:38;1.20;;;0.77;;
19095;SDS011;9680;52.520;13.332;2022-12-29T12:16:11;1.27;;;0.68;;
19095;SDS011;9680;52.520;13.332;2022-12-29T12:18:45;0.80;;;0.60;;
19095;SDS011;9680;52.520;13.332;2022-12-29T12:21:18;0.90;;;0.57;;
19095;SDS011;9680;52.520;13.332;2022-12-29T12:24:04;0.73;;;0.60;;
19095;SDS011;9680;52.520;13.332;2022-12-29T12:26:51;2.13;;;0.60;;
19095;SDS011;9680;52.520;13.332;2022-12-29T12:29:24;0.52;;;0.43;;
19095;SDS011;9680;52.520;13.332;2022-12-29T12:31:59;0.80;;;0.53;;
19095;SDS011;9680;52.520;13.332;2022-12-29T12:34:32;1.35;;;0.70;;
19095;SDS011;9680;52.520;13.332;2022-12-29T12:40:11;1.93;;;0.63;;
19095;SDS011;9680;52.520;13.332;2022-12-29T12:42:53;2.83;;;0.60;;
19095;SDS011;9680;52.520;13.332;2022-12-29T12:45:40;1.17;;;0.60;;
19095;SDS011;9680;52.520;13.332;2022-12-29T12:48:20;1.20;;;0.60;;
19095;SDS011;9680;52.520;13.332;2022-12-29T12:51:02;1.00;;;0.47;;
19095;SDS011;9680;52.520;13.332;2022-12-29T12:53:41;0.70;;;0.50;;
19095;SDS011;9680;52.520;13.332;2022-12-29T12:56:31;0.90;;;0.40;;
19095;SDS011;9680;52.520;13.332;2022-12-29T12:59:10;0.67;;;0.53;;
19095;SDS011;9680;52.520;13.332;2022-12-29T13:01:51;1.03;;;0.47;;
19095;SDS011;9680;52.520;13.332;2022-12-29T13:04:32;1.97;;;0.70;;
19095;SDS011;9680;52.520;13.332;2022-12-29T13:07:12;1.00;;;0.53;;
19095;SDS011;9680;52.520;13.332;2022-12-29T13:15:13;1.53;;;0.63;;
19095;SDS011;9680;52.520;13.332;2022-12-29T13:17:51;1.73;;;0.60;;
19095;SDS011;9680;52.520;13.332;2022-12-29T13:20:27;1.97;;;0.70;;
19095;SDS011;9680;52.520;13.332;2022-12-29T13:23:00;1.50;;;0.90;;
19095;SDS011;9680;52.520;13.332;2022-12-29T13:25:35;1.47;;;0.80;;
19095;SDS011;9680;52.520;13.332;2022-12-29T13:28:11;2.00;;;0.80;;
19095;SDS011;9680;52.520;13.332;2022-12-29T13:30:45;3.73;;;0.90;;
19095;SDS011;9680;52.520;13.332;2022-12-29T13:33:21;2.40;;;0.90;;
19095;SDS011;9680;52.520;13.332;2022-12-29T13:36:00;1.57;;;1.00;;
19095;SDS011;9680;52.520;13.332;2022-12-29T13:38:32;2.23;;;0.70;;
19095;SDS011;9680;52.520;13.332;2022-12-29T13:41:04;2.03;;;1.00;;
19095;SDS011;9680;52.520;13.332;2022-12-29T13:43:36;2.00;;;0.80;;
19095;SDS011;9680;52.520;13.332;2022-12-29T13:46:07;2.37;;;1.10;;
19095;SDS011;9680;52.520;13.332;2022-12-29T13:48:39;1.03;;;0.80;;
19095;SDS011;9680;52.520;13.332;2022-12-29T13:51:13;1.83;;;0.80;;
19095;SDS011;9680;52.520;13.332;2022-12-29T13:53:54;2.07;;;1.00;;
19095;SDS011;9680;52.520;13.332;2022-12-29T13:56:26;2.23;;;0.93;;
19095;SDS011;9680;52.520;13.332;2022-12-29T13:59:03;2.07;;;0.90;;
19095;SDS011;9680;52.520;13.332;2022-12-29T14:01:39;2.30;;;0.97;;
19095;SDS011;9680;52.520;13.332;2022-12-29T14:04:11;2.30;;;1.00;;
19095;SDS011;9680;52.520;13.332;2022-12-29T14:06:40;3.10;;;0.90;;
19095;SDS011;9680;52.520;13.332;2022-12-29T14:12:12;1.87;;;1.13;;
19095;SDS011;9680;52.520;13.332;2022-12-29T14:14:50;4.20;;;1.80;;
19095;SDS011;9680;52.520;13.332;2022-12-29T14:17:18;4.07;;;1.53;;
19095;SDS011;9680;52.520;13.332;2022-12-29T14:19:50;3.40;;;1.33;;
19095;SDS011;9680;52.520;13.332;2022-12-29T14:22:22;4.83;;;2.23;;
19095;SDS011;9680;52.520;13.332;2022-12-29T14:24:50;1.90;;;1.10;;
19095;SDS011;9680;52.520;13.332;2022-12-29T14:33:25;3.53;;;1.50;;
19095;SDS011;9680;52.520;13.332;2022-12-29T14:35:54;2.87;;;1.50;;
19095;SDS011;9680;52.520;13.332;2022-12-29T14:38:22;2.30;;;1.30;;
19095;SDS011;9680;52.520;13.332;2022-12-29T14:40:52;1.93;;;1.10;;
19095;SDS011;9680;52.520;13.332;2022-12-29T14:43:40;2.10;;;1.20;;
19095;SDS011;9680;52.520;13.332;2022-12-29T14:46:17;3.60;;;1.43;;
19095;SDS011;9680;52.520;13.332;2022-12-29T14:48:45;4.80;;;1.20;;
19095;SDS011;9680;52.520;13.332;2022-12-29T14:51:20;3.87;;;1.20;;
19095;SDS011;9680;52.520;13.332;2022-12-29T14:53:55;3.57;;;1.30;;
19095;SDS011;9680;52.520;13.332;2022-12-29T14:56:24;3.50;;;1.30;;
19095;SDS011;9680;52.520;13.332;2022-12-29T14:58:54;3.53;;;1.20;;
19095;SDS011;9680;52.520;13.332;2022-12-29T15:01:38;3.70;;;1.87;;
19095;SDS011;9680;52.520;13.332;2022-12-29T15:04:19;3.07;;;1.20;;
19095;SDS011;9680;52.520;13.332;2022-12-29T15:06:49;2.53;;;1.20;;
19095;SDS011;9680;52.520;13.332;2022-12-29T15:09:23;5.33;;;1.60;;
19095;SDS011;9680;52.520;13.332;2022-12-29T15:11:56;2.80;;;1.43;;
19095;SDS011;9680;52.520;13.332;2022-12-29T15:14:30;2.40;;;1.27;;
19095;SDS011;9680;52.520;13.332;2022-12-29T15:16:58;1.87;;;1.07;;
19095;SDS011;9680;52.520;13.332;2022-12-29T15:19:27;3.53;;;0.90;;
19095;SDS011;9680;52.520;13.332;2022-12-29T15:21:55;1.80;;;0.90;;
19095;SDS011;9680;52.520;13.332;2022-12-29T15:24:23;2.30;;;0.70;;
19095;SDS011;9680;52.520;13.332;2022-12-29T15:26:51;2.00;;;1.00;;
19095;SDS011;9680;52.520;13.332;2022-12-29T15:29:33;1.97;;;0.90;;
19095;SDS011;9680;52.520;13.332;2022-12-29T15:32:19;1.53;;;1.00;;
19095;SDS011;9680;52.520;13.332;2022-12-29T15:34:50;2.20;;;0.90;;
19095;SDS011;9680;52.520;13.332;2022-12-29T15:37:19;2.60;;;1.10;;
19095;SDS011;9680;52.520;13.332;2022-12-29T15:39:47;2.67;;;0.80;;
19095;SDS011;9680;52.520;13.332;2022-12-29T15:42:24;1.73;;;0.80;;
19095;SDS011;9680;52.520;13.332;2022-12-29T15:44:58;1.50;;;0.90;;